createdAt,value
2023-04-25T00:00:02.288Z,85.11
2023-04-25T00:01:02.311Z,85.21
2023-04-25T00:02:03.446Z,85.82
2023-04-25T00:03:03.049Z,85.41
2023-04-25T00:04:03.156Z,85.41
2023-04-25T00:05:03.509Z,85.82
2023-04-25T00:06:02.944Z,86.03
2023-04-25T00:07:02.966Z,86.33
2023-04-25T00:08:02.979Z,86.79
2023-04-25T00:09:02.752Z,86.99
2023-04-25T00:10:02.590Z,86.54
2023-04-25T00:11:02.668Z,86.24
2023-04-25T00:12:02.815Z,85.93
2023-04-25T00:13:02.329Z,86.27
2023-04-25T00:14:02.213Z,86.48
2023-04-25T00:15:02.621Z,86.24
2023-04-25T00:16:02.670Z,85.82
2023-04-25T00:17:02.761Z,85.93
2023-04-25T00:18:02.953Z,85.82
2023-04-25T00:19:02.821Z,85.62
2023-04-25T00:20:02.605Z,85.31
2023-04-25T00:21:02.520Z,85.11
2023-04-25T00:22:02.706Z,85.11
2023-04-25T00:23:02.497Z,85.21
2023-04-25T00:24:02.286Z,85.21
2023-04-25T00:25:02.115Z,85.31
2023-04-25T00:26:02.425Z,85.72
2023-04-25T00:27:02.469Z,85.82
2023-04-25T00:28:02.749Z,85.66
2023-04-25T00:29:02.380Z,85.82
2023-04-25T00:30:02.359Z,85.86
2023-04-25T00:31:02.954Z,85.82
2023-04-25T00:32:02.923Z,85.76
2023-04-25T00:33:02.551Z,85.46
2023-04-25T00:34:02.581Z,85.14
2023-04-25T00:35:02.593Z,84.80
2023-04-25T00:36:03.046Z,84.84
2023-04-25T00:37:03.066Z,84.74
2023-04-25T00:38:03.035Z,84.32
2023-04-25T00:39:03.115Z,85.14
2023-04-25T00:40:02.911Z,85.76
2023-04-25T00:41:02.798Z,86.27
2023-04-25T00:42:02.829Z,85.97
2023-04-25T00:43:02.796Z,85.86
2023-04-25T00:44:02.261Z,85.14
2023-04-25T00:45:02.626Z,84.84
2023-04-25T00:46:02.420Z,84.53
2023-04-25T00:47:03.092Z,85.04
2023-04-25T00:48:03.211Z,86.48
2023-04-25T00:49:03.249Z,84.94
2023-04-25T00:50:03.080Z,84.22
2023-04-25T00:51:03.444Z,83.81
2023-04-25T00:52:03.281Z,83.61
2023-04-25T00:53:03.017Z,83.50
2023-04-25T00:54:03.417Z,83.33
2023-04-25T00:55:03.105Z,83.64
2023-04-25T00:56:03.253Z,83.33
2023-04-25T00:57:02.302Z,86.11
2023-04-25T00:58:02.188Z,86.21
2023-04-25T00:59:02.224Z,87.55
2023-04-25T01:00:02.048Z,87.65
2023-04-25T01:01:02.635Z,87.75
2023-04-25T01:02:02.689Z,87.13
2023-04-25T01:03:02.447Z,85.49
2023-04-25T01:04:02.589Z,87.24
2023-04-25T01:05:02.082Z,86.11
2023-04-25T01:06:02.575Z,86.97
2023-04-25T01:07:02.383Z,85.43
2023-04-25T01:08:02.894Z,84.71
2023-04-25T01:09:02.827Z,84.40
2023-04-25T01:10:02.321Z,84.61
2023-04-25T01:11:02.374Z,85.12
2023-04-25T01:12:02.891Z,85.02
2023-04-25T01:13:03.254Z,84.71
2023-04-25T01:14:03.183Z,85.06
2023-04-25T01:15:03.002Z,85.06
2023-04-25T01:16:03.080Z,86.29
2023-04-25T01:17:03.133Z,86.60
2023-04-25T01:18:02.969Z,86.19
2023-04-25T01:19:02.627Z,85.78
2023-04-25T01:20:02.786Z,85.41
2023-04-25T01:21:02.529Z,84.89
2023-04-25T01:22:02.020Z,84.58
2023-04-25T01:23:01.781Z,84.69
2023-04-25T01:24:02.244Z,84.89
2023-04-25T01:25:02.000Z,85.61
2023-04-25T01:26:02.296Z,85.30
2023-04-25T01:27:02.532Z,85.44
2023-04-25T01:28:02.332Z,85.24
2023-04-25T01:29:02.111Z,86.16
2023-04-25T01:30:02.008Z,87.19
2023-04-25T01:31:02.411Z,87.19
2023-04-25T01:32:03.192Z,86.68
2023-04-25T01:33:03.266Z,87.19
2023-04-25T01:34:02.675Z,87.92
2023-04-25T01:35:02.714Z,88.37
2023-04-25T01:36:03.195Z,89.19
2023-04-25T01:37:02.673Z,89.29
2023-04-25T01:38:02.824Z,88.78
2023-04-25T01:39:03.138Z,89.19
2023-04-25T01:40:02.884Z,89.54
2023-04-25T01:41:03.325Z,89.85
2023-04-25T01:42:02.906Z,89.85
2023-04-25T01:43:02.441Z,89.54
2023-04-25T01:44:02.871Z,89.23
2023-04-25T01:45:02.837Z,89.03
2023-04-25T01:46:02.465Z,89.44
2023-04-25T01:47:02.970Z,89.48
2023-04-25T01:48:03.209Z,89.48
2023-04-25T01:49:03.075Z,89.38
2023-04-25T01:50:03.190Z,88.96
2023-04-25T01:51:03.299Z,88.96
2023-04-25T01:52:02.344Z,89.17
2023-04-25T01:53:02.280Z,88.76
2023-04-25T01:54:02.174Z,88.56
2023-04-25T01:55:02.013Z,88.76
2023-04-25T01:56:01.982Z,88.70
2023-04-25T01:57:02.704Z,89.01
2023-04-25T01:58:02.423Z,89.32
2023-04-25T01:59:02.844Z,89.11
2023-04-25T02:00:03.025Z,89.22
2023-04-25T02:01:02.704Z,88.39
2023-04-25T02:02:02.439Z,88.18
2023-04-25T02:03:02.041Z,88.29
2023-04-25T02:04:02.306Z,88.08
2023-04-25T02:05:02.304Z,88.49
2023-04-25T02:06:02.331Z,89.22
2023-04-25T02:07:02.764Z,90.49
2023-04-25T02:08:02.512Z,90.39
2023-04-25T02:09:02.895Z,89.87
2023-04-25T02:10:02.447Z,89.87
2023-04-25T02:11:02.877Z,89.98
2023-04-25T02:12:02.300Z,90.19
2023-04-25T02:13:02.500Z,91.11
2023-04-25T02:14:01.931Z,91.73
2023-04-25T02:15:02.432Z,91.32
2023-04-25T02:16:01.992Z,91.52
2023-04-25T02:17:02.322Z,91.83
2023-04-25T02:18:02.184Z,91.42
2023-04-25T02:19:02.443Z,90.70
2023-04-25T02:20:02.423Z,90.49
2023-04-25T02:21:02.621Z,90.39
2023-04-25T02:22:02.595Z,89.87
2023-04-25T02:23:02.403Z,89.98
2023-04-25T02:24:03.048Z,90.04
2023-04-25T02:25:02.562Z,89.52
2023-04-25T02:26:02.932Z,89.32
2023-04-25T02:27:01.967Z,89.11
2023-04-25T02:28:02.223Z,89.94
2023-04-25T02:29:02.246Z,90.45
2023-04-25T02:30:02.235Z,90.55
2023-04-25T02:31:02.238Z,90.04
2023-04-25T02:32:02.463Z,90.55
2023-04-25T02:33:02.266Z,91.38
2023-04-25T02:34:02.791Z,92.21
2023-04-25T02:35:02.284Z,92.72
2023-04-25T02:36:02.587Z,93.13
2023-04-25T02:37:02.972Z,93.75
2023-04-25T02:38:03.147Z,93.96
2023-04-25T02:39:02.536Z,93.85
2023-04-25T02:40:03.134Z,93.44
2023-04-25T02:41:02.965Z,93.19
2023-04-25T02:42:02.470Z,93.09
2023-04-25T02:43:01.937Z,93.71
2023-04-25T02:44:01.857Z,93.60
2023-04-25T02:45:02.486Z,93.50
2023-04-25T02:46:02.149Z,92.88
2023-04-25T02:47:03.174Z,92.88
2023-04-25T02:48:02.803Z,92.68
2023-04-25T02:49:02.575Z,92.22
2023-04-25T02:50:02.617Z,91.96
2023-04-25T02:51:02.907Z,91.60
2023-04-25T02:52:02.182Z,91.30
2023-04-25T02:53:02.057Z,90.88
2023-04-25T02:54:02.184Z,91.09
2023-04-25T02:55:01.958Z,91.81
2023-04-25T02:56:01.995Z,92.02
2023-04-25T02:57:03.051Z,91.91
2023-04-25T02:58:02.457Z,91.71
2023-04-25T02:59:02.899Z,91.30
2023-04-25T03:00:02.509Z,90.84
2023-04-25T03:01:02.474Z,90.53
2023-04-25T03:02:03.618Z,90.64
2023-04-25T03:03:03.097Z,90.53
2023-04-25T03:04:03.006Z,90.43
2023-04-25T03:05:03.428Z,90.33
2023-04-25T03:06:03.172Z,90.53
2023-04-25T03:07:02.745Z,90.73
2023-04-25T03:08:03.223Z,90.64
2023-04-25T03:09:02.813Z,90.84
2023-04-25T03:10:03.234Z,90.53
2023-04-25T03:11:02.771Z,91.05
2023-04-25T03:12:03.030Z,91.25
2023-04-25T03:13:03.370Z,90.73
2023-04-25T03:14:02.860Z,90.22
2023-04-25T03:15:03.286Z,89.71
2023-04-25T03:16:03.071Z,89.29
2023-04-25T03:17:02.586Z,89.81
2023-04-25T03:18:02.396Z,89.19
2023-04-25T03:19:02.850Z,88.57
2023-04-25T03:20:02.664Z,88.57
2023-04-25T03:21:02.459Z,88.17
2023-04-25T03:22:02.830Z,87.75
2023-04-25T03:23:02.895Z,88.26
2023-04-25T03:24:03.328Z,87.54
2023-04-25T03:25:03.067Z,87.44
2023-04-25T03:26:03.325Z,87.44
2023-04-25T03:27:02.508Z,87.48
2023-04-25T03:28:02.955Z,87.07
2023-04-25T03:29:02.856Z,86.87
2023-04-25T03:30:02.686Z,89.54
2023-04-25T03:31:02.454Z,88.92
2023-04-25T03:32:03.017Z,88.20
2023-04-25T03:33:02.836Z,88.72
2023-04-25T03:34:03.391Z,90.78
2023-04-25T03:35:03.345Z,91.71
2023-04-25T03:36:03.221Z,91.60
2023-04-25T03:37:03.257Z,91.40
2023-04-25T03:38:03.117Z,89.03
2023-04-25T03:39:03.428Z,88.51
2023-04-25T03:40:03.158Z,88.65
2023-04-25T03:41:03.391Z,87.90
2023-04-25T03:42:03.615Z,87.52
2023-04-25T03:43:03.504Z,87.42
2023-04-25T03:44:03.381Z,87.21
2023-04-25T03:45:03.083Z,87.11
2023-04-25T03:46:03.177Z,87.11
2023-04-25T03:47:03.184Z,87.21
2023-04-25T03:48:02.620Z,87.21
2023-04-25T03:49:02.524Z,87.01
2023-04-25T03:50:02.956Z,87.21
2023-04-25T03:51:02.665Z,87.42
2023-04-25T03:52:03.088Z,87.63
2023-04-25T03:53:03.031Z,87.77
2023-04-25T03:54:03.375Z,87.46
2023-04-25T03:55:03.054Z,87.46
2023-04-25T03:56:03.062Z,87.35
2023-04-25T03:57:03.098Z,87.26
2023-04-25T03:58:03.057Z,87.66
2023-04-25T03:59:03.035Z,87.46
2023-04-25T04:00:02.760Z,87.15
2023-04-25T04:01:02.436Z,86.94
2023-04-25T04:02:02.394Z,86.94
2023-04-25T04:03:02.093Z,86.94
2023-04-25T04:04:02.373Z,86.84
2023-04-25T04:05:02.285Z,87.15
2023-04-25T04:06:02.461Z,87.46
2023-04-25T04:07:02.324Z,88.39
2023-04-25T04:08:02.305Z,89.62
2023-04-25T04:09:02.073Z,90.66
2023-04-25T04:10:02.354Z,90.66
2023-04-25T04:11:02.206Z,90.04
2023-04-25T04:12:01.961Z,89.94
2023-04-25T04:13:01.806Z,89.52
2023-04-25T04:14:01.653Z,89.22
2023-04-25T04:15:01.479Z,88.90
2023-04-25T04:16:01.883Z,88.65
2023-04-25T04:17:01.708Z,88.96
2023-04-25T04:18:01.633Z,89.07
2023-04-25T04:19:02.173Z,89.89
2023-04-25T04:20:01.760Z,91.24
2023-04-25T04:21:01.627Z,91.85
2023-04-25T04:22:02.154Z,91.64
2023-04-25T04:23:01.980Z,91.44
2023-04-25T04:24:01.906Z,91.85
2023-04-25T04:25:01.891Z,91.85
2023-04-25T04:26:02.211Z,91.64
2023-04-25T04:27:02.160Z,91.44
2023-04-25T04:28:02.811Z,92.27
2023-04-25T04:29:02.410Z,92.37
2023-04-25T04:30:02.301Z,92.16
2023-04-25T04:31:02.263Z,91.50
2023-04-25T04:32:01.452Z,91.40
2023-04-25T04:33:01.704Z,90.78
2023-04-25T04:34:01.896Z,90.47
2023-04-25T04:35:01.494Z,90.67
2023-04-25T04:36:01.641Z,90.37
2023-04-25T04:37:01.921Z,90.26
2023-04-25T04:38:02.096Z,90.16
2023-04-25T04:39:01.649Z,90.37
2023-04-25T04:40:01.585Z,90.67
2023-04-25T04:41:01.678Z,90.67
2023-04-25T04:42:01.884Z,91.30
2023-04-25T04:43:02.258Z,91.19
2023-04-25T04:44:02.187Z,90.88
2023-04-25T04:45:02.323Z,90.53
2023-04-25T04:46:02.032Z,90.73
2023-04-25T04:47:02.440Z,91.05
2023-04-25T04:48:02.499Z,91.36
2023-04-25T04:49:01.992Z,91.36
2023-04-25T04:50:02.064Z,91.46
2023-04-25T04:51:02.420Z,91.05
2023-04-25T04:52:02.045Z,91.25
2023-04-25T04:53:01.882Z,91.87
2023-04-25T04:54:01.824Z,91.77
2023-04-25T04:55:01.490Z,91.77
2023-04-25T04:56:02.096Z,91.36
2023-04-25T04:57:02.150Z,91.36
2023-04-25T04:58:02.075Z,91.31
2023-04-25T04:59:02.395Z,91.62
2023-04-25T05:00:02.038Z,92.18
2023-04-25T05:01:02.458Z,92.69
2023-04-25T05:02:02.261Z,93.21
2023-04-25T05:03:02.558Z,93.31
2023-04-25T05:04:02.603Z,93.83
2023-04-25T05:05:02.672Z,93.83
2023-04-25T05:06:02.863Z,93.58
2023-04-25T05:07:03.243Z,93.79
2023-04-25T05:08:03.061Z,93.37
2023-04-25T05:09:02.817Z,93.68
2023-04-25T05:10:03.089Z,93.48
2023-04-25T05:11:03.227Z,93.27
2023-04-25T05:12:03.493Z,93.16
2023-04-25T05:13:03.169Z,93.27
2023-04-25T05:14:03.430Z,92.96
2023-04-25T05:15:03.144Z,92.65
2023-04-25T05:16:03.753Z,92.65
2023-04-25T05:17:03.699Z,92.76
2023-04-25T05:18:03.335Z,92.86
2023-04-25T05:19:03.695Z,93.27
2023-04-25T05:20:03.636Z,92.96
2023-04-25T05:21:03.429Z,92.96
2023-04-25T05:22:03.241Z,92.55
2023-04-25T05:23:03.178Z,92.65
2023-04-25T05:24:02.994Z,92.55
2023-04-25T05:25:02.777Z,92.44
2023-04-25T05:26:02.936Z,92.34
2023-04-25T05:27:03.452Z,92.55
2023-04-25T05:28:03.009Z,92.65
2023-04-25T05:29:03.196Z,92.92
2023-04-25T05:30:03.131Z,92.82
2023-04-25T05:31:03.300Z,92.71
2023-04-25T05:32:03.350Z,92.50
2023-04-25T05:33:03.182Z,92.50
2023-04-25T05:34:03.544Z,92.61
2023-04-25T05:35:03.588Z,92.57
2023-04-25T05:36:03.382Z,92.05
2023-04-25T05:37:02.317Z,91.95
2023-04-25T05:38:02.707Z,92.16
2023-04-25T05:39:02.122Z,92.16
2023-04-25T05:40:02.503Z,92.25
2023-04-25T05:41:02.745Z,92.05
2023-04-25T05:42:03.068Z,91.95
2023-04-25T05:43:02.930Z,92.25
2023-04-25T05:44:02.840Z,92.46
2023-04-25T05:45:02.944Z,92.11
2023-04-25T05:46:03.026Z,92.11
2023-04-25T05:47:02.899Z,91.60
2023-04-25T05:48:03.249Z,91.91
2023-04-25T05:49:03.255Z,91.91
2023-04-25T05:50:02.930Z,91.91
2023-04-25T05:51:03.021Z,91.91
2023-04-25T05:52:02.392Z,92.11
2023-04-25T05:53:02.629Z,92.11
2023-04-25T05:54:02.781Z,91.91
2023-04-25T05:55:02.603Z,91.64
2023-04-25T05:56:02.438Z,92.16
2023-04-25T05:57:03.162Z,92.42
2023-04-25T05:58:03.318Z,92.32
2023-04-25T05:59:02.905Z,91.80
2023-04-25T06:00:03.026Z,91.70
2023-04-25T06:01:02.978Z,91.70
2023-04-25T06:02:02.147Z,91.60
2023-04-25T06:03:02.702Z,91.70
2023-04-25T06:04:02.882Z,91.49
2023-04-25T06:05:02.554Z,91.60
2023-04-25T06:06:02.337Z,91.80
2023-04-25T06:07:02.217Z,92.07
2023-04-25T06:08:02.436Z,91.76
2023-04-25T06:09:02.130Z,91.49
2023-04-25T06:10:02.141Z,91.76
2023-04-25T06:11:02.537Z,91.76
2023-04-25T06:12:02.909Z,91.76
2023-04-25T06:13:02.912Z,91.86
2023-04-25T06:14:02.990Z,92.03
2023-04-25T06:15:06.283Z,91.82
2023-04-25T06:16:03.202Z,91.41
2023-04-25T06:17:02.560Z,91.31
2023-04-25T06:18:02.490Z,90.75
2023-04-25T06:19:02.605Z,90.85
2023-04-25T06:20:04.566Z,91.57
2023-04-25T06:21:02.280Z,91.67
2023-04-25T06:22:02.699Z,91.06
2023-04-25T06:23:02.881Z,90.50
2023-04-25T06:24:02.886Z,90.30
2023-04-25T06:25:02.869Z,89.99
2023-04-25T06:26:02.806Z,89.69
2023-04-25T06:27:02.337Z,88.96
2023-04-25T06:28:02.633Z,88.56
2023-04-25T06:29:02.180Z,88.35
2023-04-25T06:30:02.686Z,88.24
2023-04-25T06:31:02.655Z,88.35
2023-04-25T06:32:02.281Z,87.94
2023-04-25T06:33:02.169Z,88.35
2023-04-25T06:34:02.479Z,88.24
2023-04-25T06:35:02.204Z,88.24
2023-04-25T06:36:02.355Z,87.94
2023-04-25T06:37:02.957Z,88.24
2023-04-25T06:38:02.863Z,88.04
2023-04-25T06:39:02.570Z,87.90
2023-04-25T06:40:02.765Z,87.49
2023-04-25T06:41:02.647Z,87.59
2023-04-25T06:42:02.273Z,87.28
2023-04-25T06:43:02.569Z,87.59
2023-04-25T06:44:02.521Z,87.49
2023-04-25T06:45:02.509Z,86.98
2023-04-25T06:46:02.007Z,87.08
2023-04-25T06:47:02.633Z,87.18
2023-04-25T06:48:02.418Z,86.98
2023-04-25T06:49:02.173Z,86.98
2023-04-25T06:50:02.467Z,86.87
2023-04-25T06:51:02.349Z,86.46
2023-04-25T06:52:02.854Z,86.36
2023-04-25T06:53:02.587Z,86.52
2023-04-25T06:54:02.390Z,85.91
2023-04-25T06:55:02.732Z,86.32
2023-04-25T06:56:02.736Z,86.52
2023-04-25T06:57:02.280Z,86.18
2023-04-25T06:58:02.108Z,86.28
2023-04-25T06:59:01.800Z,85.36
2023-04-25T07:00:02.457Z,84.80
2023-04-25T07:01:02.398Z,85.11
2023-04-25T07:02:02.526Z,83.98
2023-04-25T07:03:02.929Z,84.50
2023-04-25T07:04:03.073Z,84.25
2023-04-25T07:05:02.221Z,84.05
2023-04-25T07:06:02.852Z,83.44
2023-04-25T07:07:02.133Z,81.70
2023-04-25T07:08:02.309Z,82.00
2023-04-25T07:09:01.755Z,81.59
2023-04-25T07:10:02.495Z,81.49
2023-04-25T07:11:02.176Z,80.57
2023-04-25T07:12:02.553Z,80.57
2023-04-25T07:13:02.658Z,80.67
2023-04-25T07:14:02.188Z,81.29
2023-04-25T07:15:02.316Z,81.38
2023-04-25T07:16:02.430Z,81.59
2023-04-25T07:17:02.259Z,81.29
2023-04-25T07:18:02.526Z,80.98
2023-04-25T07:19:02.215Z,81.35
2023-04-25T07:20:02.620Z,81.86
2023-04-25T07:21:02.346Z,80.94
2023-04-25T07:22:02.952Z,81.56
2023-04-25T07:23:02.566Z,81.96
2023-04-25T07:24:02.451Z,80.83
2023-04-25T07:25:02.334Z,80.49
2023-04-25T07:26:02.752Z,80.90
2023-04-25T07:27:02.779Z,81.31
2023-04-25T07:28:02.414Z,80.80
2023-04-25T07:29:02.562Z,80.66
2023-04-25T07:30:02.706Z,79.84
2023-04-25T07:31:02.640Z,79.09
2023-04-25T07:32:01.932Z,79.50
2023-04-25T07:33:02.112Z,78.78
2023-04-25T07:34:02.283Z,78.78
2023-04-25T07:35:01.956Z,79.19
2023-04-25T07:36:01.923Z,79.39
2023-04-25T07:37:01.984Z,78.85
2023-04-25T07:38:02.324Z,78.23
2023-04-25T07:39:02.177Z,77.72
2023-04-25T07:40:02.212Z,76.81
2023-04-25T07:41:02.264Z,76.53
2023-04-25T07:42:02.929Z,75.51
2023-04-25T07:43:02.347Z,74.93
2023-04-25T07:44:02.941Z,75.92
2023-04-25T07:45:02.819Z,75.21
2023-04-25T07:46:02.367Z,75.82
2023-04-25T07:47:04.320Z,75.55
2023-04-25T07:48:01.723Z,75.71
2023-04-25T07:49:02.012Z,75.82
2023-04-25T07:50:01.809Z,75.71
2023-04-25T07:51:02.119Z,75.75
2023-04-25T07:52:02.148Z,76.37
2023-04-25T07:53:02.315Z,75.92
2023-04-25T07:54:01.848Z,76.53
2023-04-25T07:56:01.821Z,74.69
2023-04-25T07:57:02.635Z,74.80
2023-04-25T07:58:02.282Z,75.45
2023-04-25T07:59:02.679Z,75.51
2023-04-25T08:00:02.259Z,75.21
2023-04-25T08:01:02.633Z,74.39
2023-04-25T08:02:02.678Z,73.36
2023-04-25T08:03:02.655Z,72.17
2023-04-25T08:04:02.712Z,72.58
2023-04-25T08:05:02.716Z,72.99
2023-04-25T08:06:04.852Z,73.20
2023-04-25T08:07:03.297Z,72.99
2023-04-25T08:08:02.901Z,72.99
2023-04-25T08:09:03.052Z,73.20
2023-04-25T08:10:03.434Z,72.07
2023-04-25T08:11:02.870Z,71.97
2023-04-25T08:12:02.405Z,71.87
2023-04-25T08:13:02.613Z,71.36
2023-04-25T08:14:02.667Z,71.80
2023-04-25T08:15:02.953Z,73.13
2023-04-25T08:16:02.596Z,72.31
2023-04-25T08:17:03.081Z,72.72
2023-04-25T08:18:03.339Z,72.21
2023-04-25T08:19:03.356Z,72.00
2023-04-25T08:20:03.430Z,72.72
2023-04-25T08:21:02.914Z,72.82
2023-04-25T08:22:02.927Z,73.50
2023-04-25T08:23:02.786Z,72.17
2023-04-25T08:24:02.829Z,72.28
2023-04-25T08:25:02.837Z,73.10
2023-04-25T08:26:02.540Z,71.36
2023-04-25T08:27:02.853Z,71.80
2023-04-25T08:28:02.925Z,70.67
2023-04-25T08:29:02.933Z,70.88
2023-04-25T08:30:02.886Z,70.47
2023-04-25T08:31:03.277Z,71.29
2023-04-25T08:32:02.914Z,70.26
2023-04-25T08:33:02.325Z,69.24
2023-04-25T08:34:02.514Z,70.78
2023-04-25T08:35:02.791Z,69.65
2023-04-25T08:36:02.762Z,69.45
2023-04-25T08:37:02.610Z,69.85
2023-04-25T08:38:02.985Z,70.26
2023-04-25T08:39:02.929Z,70.67
2023-04-25T08:40:02.755Z,71.59
2023-04-25T08:41:02.745Z,71.39
2023-04-25T08:42:01.989Z,71.49
2023-04-25T08:43:02.124Z,72.11
2023-04-25T08:44:02.115Z,71.97
2023-04-25T08:45:03.606Z,71.77
2023-04-25T08:46:02.471Z,71.36
2023-04-25T08:47:02.224Z,71.77
2023-04-25T08:48:02.171Z,72.07
2023-04-25T08:49:02.713Z,70.95
2023-04-25T08:50:02.156Z,71.56
2023-04-25T08:51:02.688Z,72.34
2023-04-25T08:52:02.374Z,71.53
2023-04-25T08:53:02.516Z,71.33
2023-04-25T08:54:09.462Z,70.10
2023-04-25T08:55:02.626Z,69.76
2023-04-25T08:56:02.258Z,70.27
2023-04-25T08:57:02.427Z,69.15
2023-04-25T08:58:02.765Z,69.35
2023-04-25T08:59:02.874Z,69.62
2023-04-25T09:00:02.887Z,67.58
2023-04-25T09:01:02.447Z,67.41
2023-04-25T09:02:02.440Z,67.61
2023-04-25T09:03:02.586Z,66.08
2023-04-25T09:04:02.313Z,66.69
2023-04-25T09:05:02.051Z,67.51
2023-04-25T09:06:02.545Z,66.90
2023-04-25T09:07:02.383Z,66.69
2023-04-25T09:08:02.752Z,67.18
2023-04-25T09:09:02.948Z,67.38
2023-04-25T09:10:02.849Z,66.97
2023-04-25T09:11:02.720Z,65.84
2023-04-25T09:12:02.000Z,65.34
2023-04-25T09:13:02.146Z,66.15
2023-04-25T09:14:02.615Z,66.86
2023-04-25T09:15:02.155Z,65.84
2023-04-25T09:16:02.152Z,66.15
2023-04-25T09:17:02.687Z,65.64
2023-04-25T09:18:02.468Z,65.44
2023-04-25T09:19:02.514Z,65.34
2023-04-25T09:20:02.343Z,65.74
2023-04-25T09:21:07.521Z,66.36
2023-04-25T09:22:02.401Z,66.86
2023-04-25T09:23:02.711Z,66.05
2023-04-25T09:24:02.645Z,65.95
2023-04-25T09:25:02.460Z,66.05
2023-04-25T09:26:02.874Z,66.05
2023-04-25T09:27:02.092Z,66.15
2023-04-25T09:28:02.070Z,66.66
2023-04-25T09:29:02.544Z,64.72
2023-04-25T09:30:02.146Z,65.64
2023-04-25T09:31:01.998Z,64.93
2023-04-25T09:32:02.219Z,63.49
2023-04-25T09:33:02.670Z,64.72
2023-04-25T09:34:02.650Z,65.44
2023-04-25T09:35:02.353Z,65.44
2023-04-25T09:36:02.341Z,63.63
2023-04-25T09:37:02.732Z,63.43
2023-04-25T09:38:02.677Z,63.22
2023-04-25T09:39:02.532Z,63.66
2023-04-25T09:40:02.797Z,63.76
2023-04-25T09:41:02.756Z,64.58
2023-04-25T09:42:02.403Z,63.86
2023-04-25T09:43:02.248Z,64.48
2023-04-25T09:44:03.555Z,65.50
2023-04-25T09:45:02.752Z,64.89
2023-04-25T09:46:02.423Z,65.09
2023-04-25T09:47:02.193Z,66.11
2023-04-25T09:48:02.226Z,64.89
2023-04-25T09:49:01.885Z,65.40
2023-04-25T09:50:01.991Z,65.60
2023-04-25T09:51:01.848Z,65.91
2023-04-25T09:52:02.631Z,65.60
2023-04-25T09:53:02.242Z,65.91
2023-04-25T09:54:02.453Z,65.60
2023-04-25T09:55:02.652Z,66.31
2023-04-25T09:56:02.811Z,66.31
2023-04-25T09:57:02.675Z,66.93
2023-04-25T09:58:02.448Z,66.83
2023-04-25T09:59:02.466Z,66.62
2023-04-25T10:00:02.874Z,66.59
2023-04-25T10:01:02.487Z,67.00
2023-04-25T10:02:02.191Z,66.08
2023-04-25T10:03:02.035Z,67.21
2023-04-25T10:04:02.710Z,67.00
2023-04-25T10:05:02.449Z,66.39
2023-04-25T10:06:02.153Z,66.93
2023-04-25T10:07:02.527Z,66.01
2023-04-25T10:08:02.815Z,66.83
2023-04-25T10:09:02.436Z,67.10
2023-04-25T10:10:02.815Z,67.71
2023-04-25T10:11:02.455Z,67.21
2023-04-25T10:12:02.189Z,67.51
2023-04-25T10:13:02.188Z,67.00
2023-04-25T10:14:01.892Z,66.59
2023-04-25T10:15:02.128Z,67.41
2023-04-25T10:16:02.152Z,67.58
2023-04-25T10:17:02.356Z,65.64
2023-04-25T10:18:02.821Z,66.25
2023-04-25T10:19:02.697Z,66.56
2023-04-25T10:20:02.871Z,66.15
2023-04-25T10:21:02.388Z,67.27
2023-04-25T10:22:02.901Z,67.58
2023-04-25T10:23:02.902Z,65.34
2023-04-25T10:24:02.774Z,65.95
2023-04-25T10:25:02.705Z,66.42
2023-04-25T10:26:02.878Z,66.22
2023-04-25T10:27:02.519Z,65.41
2023-04-25T10:28:02.479Z,64.59
2023-04-25T10:29:02.163Z,64.79
2023-04-25T10:30:02.092Z,65.41
2023-04-25T10:31:02.259Z,65.61
2023-04-25T10:32:02.974Z,65.10
2023-04-25T10:33:02.862Z,65.92
2023-04-25T10:34:02.597Z,66.12
2023-04-25T10:35:02.620Z,65.20
2023-04-25T10:36:02.864Z,64.87
2023-04-25T10:37:02.901Z,64.76
2023-04-25T10:38:02.856Z,64.05
2023-04-25T10:39:02.985Z,63.23
2023-04-25T10:40:02.802Z,63.64
2023-04-25T10:41:03.109Z,63.95
2023-04-25T10:42:02.193Z,63.95
2023-04-25T10:43:01.780Z,63.54
2023-04-25T10:44:02.183Z,64.15
2023-04-25T10:45:01.721Z,64.22
2023-04-25T10:46:01.984Z,64.43
2023-04-25T10:47:02.475Z,64.02
2023-04-25T10:48:02.350Z,64.32
2023-04-25T10:49:02.457Z,62.70
2023-04-25T10:50:02.186Z,62.70
2023-04-25T10:51:01.987Z,63.10
2023-04-25T10:52:02.185Z,63.00
2023-04-25T10:53:02.249Z,62.18
2023-04-25T10:54:02.601Z,63.10
2023-04-25T10:55:02.261Z,62.11
2023-04-25T10:56:02.324Z,62.42
2023-04-25T10:57:02.850Z,62.52
2023-04-25T10:58:02.547Z,61.80
2023-04-25T10:59:02.413Z,62.82
2023-04-25T11:00:02.600Z,63.13
2023-04-25T11:01:02.541Z,63.03
2023-04-25T11:02:03.365Z,62.32
2023-04-25T11:03:03.118Z,62.14
2023-04-25T11:04:03.409Z,62.85
2023-04-25T11:05:03.290Z,62.85
2023-04-25T11:06:03.104Z,63.16
2023-04-25T11:07:07.187Z,62.85
2023-04-25T11:08:08.244Z,62.85
2023-04-25T11:09:03.795Z,62.96
2023-04-25T11:10:03.451Z,62.76
2023-04-25T11:11:03.877Z,63.37
2023-04-25T11:12:03.267Z,64.11
2023-04-25T11:13:03.260Z,64.59
2023-04-25T11:14:03.347Z,64.18
2023-04-25T11:15:03.501Z,64.18
2023-04-25T11:16:12.377Z,64.08
2023-04-25T11:17:02.885Z,64.59
2023-04-25T11:18:02.903Z,64.18
2023-04-25T11:19:03.410Z,64.39
2023-04-25T11:20:03.208Z,64.11
2023-04-25T11:21:02.832Z,64.62
2023-04-25T11:22:02.975Z,65.13
2023-04-25T11:24:02.911Z,65.64
2023-04-25T11:25:02.543Z,65.44
2023-04-25T11:26:02.444Z,65.64
2023-04-25T11:27:03.436Z,65.13
2023-04-25T11:28:03.397Z,64.83
2023-04-25T11:29:02.880Z,65.34
2023-04-25T11:30:03.426Z,65.74
2023-04-25T11:31:02.940Z,65.20
2023-04-25T11:32:03.827Z,65.20
2023-04-25T11:33:03.809Z,65.71
2023-04-25T11:34:03.239Z,65.99
2023-04-25T11:35:03.582Z,65.17
2023-04-25T11:36:03.606Z,65.25
2023-04-25T11:37:02.332Z,65.95
2023-04-25T11:38:03.020Z,66.03
2023-04-25T11:39:02.408Z,67.22
2023-04-25T11:40:02.464Z,64.95
2023-04-25T11:41:02.688Z,63.42
2023-04-25T11:42:03.270Z,61.56
2023-04-25T11:43:03.155Z,60.85
2023-04-25T11:44:02.891Z,61.22
2023-04-25T11:45:02.844Z,59.70
2023-04-25T11:46:02.928Z,60.31
2023-04-25T11:47:03.219Z,60.61
2023-04-25T11:48:03.900Z,59.91
2023-04-25T11:49:03.332Z,61.33
2023-04-25T11:50:03.298Z,60.69
2023-04-25T11:51:03.671Z,59.91
2023-04-25T11:52:03.932Z,58.78
2023-04-25T11:53:03.210Z,58.69
2023-04-25T11:54:02.945Z,59.30
2023-04-25T11:55:03.183Z,58.48
2023-04-25T11:56:03.111Z,58.10
2023-04-25T11:57:03.414Z,58.10
2023-04-25T11:58:02.790Z,58.33
2023-04-25T11:59:02.980Z,57.82
2023-04-25T12:00:02.934Z,58.13
2023-04-25T12:01:02.897Z,58.53
2023-04-25T12:02:02.766Z,58.64
2023-04-25T12:03:02.814Z,59.05
2023-04-25T12:04:03.017Z,58.51
2023-04-25T12:05:15.874Z,58.71
2023-04-25T12:06:02.616Z,58.44
2023-04-25T12:07:02.571Z,58.64
2023-04-25T12:08:02.549Z,59.14
2023-04-25T12:09:02.295Z,59.96
2023-04-25T12:10:02.412Z,58.84
2023-04-25T12:11:02.322Z,58.36
2023-04-25T12:12:02.821Z,58.26
2023-04-25T12:13:03.546Z,58.05
2023-04-25T12:14:02.908Z,58.26
2023-04-25T12:15:02.741Z,58.56
2023-04-25T12:16:03.113Z,58.15
2023-04-25T12:17:03.036Z,58.36
2023-04-25T12:18:02.296Z,59.00
2023-04-25T12:19:01.911Z,58.49
2023-04-25T12:20:01.778Z,58.80
2023-04-25T12:21:01.847Z,58.80
2023-04-25T12:22:02.303Z,59.51
2023-04-25T12:23:01.996Z,59.61
2023-04-25T12:24:01.976Z,60.02
2023-04-25T12:25:01.945Z,59.10
2023-04-25T12:26:01.915Z,59.10
2023-04-25T12:27:01.704Z,59.68
2023-04-25T12:28:02.519Z,59.58
2023-04-25T12:29:02.387Z,59.48
2023-04-25T12:30:02.756Z,59.07
2023-04-25T12:31:02.389Z,57.95
2023-04-25T12:32:02.523Z,58.67
2023-04-25T12:33:02.251Z,58.26
2023-04-25T12:34:01.896Z,57.65
2023-04-25T12:35:02.356Z,58.05
2023-04-25T12:36:03.893Z,58.36
2023-04-25T12:37:01.885Z,58.87
2023-04-25T12:38:02.316Z,58.56
2023-04-25T12:39:02.232Z,58.94
2023-04-25T12:40:02.478Z,58.64
2023-04-25T12:41:02.665Z,58.03
2023-04-25T12:42:02.763Z,59.93
2023-04-25T12:43:02.322Z,59.30
2023-04-25T12:44:02.255Z,59.37
2023-04-25T12:45:02.283Z,59.37
2023-04-25T12:46:01.910Z,57.10
2023-04-25T12:47:01.886Z,57.28
2023-04-25T12:48:04.150Z,55.66
2023-04-25T12:49:17.264Z,54.61
2023-04-25T12:50:02.754Z,52.48
2023-04-25T12:51:02.595Z,53.88
2023-04-25T12:52:02.953Z,53.98
2023-04-25T12:53:02.640Z,54.66
2023-04-25T12:54:02.488Z,54.46